createdAt,value
2022-10-31T00:02:43.367Z,82.80
2022-10-31T00:05:50.854Z,82.90
2022-10-31T00:08:56.461Z,83.00
2022-10-31T00:12:00.053Z,83.00
2022-10-31T00:15:03.703Z,83.60
2022-10-31T00:18:08.988Z,83.00
2022-10-31T00:21:14.594Z,83.00
2022-10-31T00:24:18.241Z,83.00
2022-10-31T00:27:21.897Z,83.00
2022-10-31T00:30:25.530Z,83.00
2022-10-31T00:33:29.512Z,83.00
2022-10-31T00:36:35.097Z,83.00
2022-10-31T00:39:39.549Z,83.00
2022-10-31T00:42:43.913Z,82.90
2022-10-31T00:45:47.544Z,83.00
2022-10-31T00:48:51.203Z,83.00
2022-10-31T00:51:56.836Z,83.10
2022-10-31T00:55:00.513Z,83.10
2022-10-31T00:58:04.876Z,83.10
2022-10-31T01:01:09.826Z,83.20
2022-10-31T01:04:13.568Z,83.10
2022-10-31T01:07:19.177Z,83.20
2022-10-31T01:10:23.041Z,83.20
2022-10-31T01:13:28.047Z,83.30
2022-10-31T01:16:31.879Z,83.20
2022-10-31T01:19:35.588Z,83.60
2022-10-31T01:22:41.181Z,83.30
2022-10-31T01:25:44.815Z,83.30
2022-10-31T01:28:50.245Z,83.30
2022-10-31T01:31:53.882Z,83.40
2022-10-31T01:34:57.599Z,83.30
2022-10-31T01:38:03.204Z,83.30
2022-10-31T01:41:07.153Z,83.30
2022-10-31T01:44:26.789Z,83.40
2022-10-31T01:47:43.372Z,83.20
2022-10-31T01:50:49.511Z,83.20
2022-10-31T01:53:57.936Z,83.20
2022-10-31T01:57:02.901Z,83.30
2022-10-31T02:00:10.369Z,83.30
2022-10-31T02:03:21.149Z,83.30
2022-10-31T02:06:34.866Z,83.30
2022-10-31T02:09:42.260Z,83.30
2022-10-31T02:12:47.241Z,83.40
2022-10-31T02:15:54.659Z,83.30
2022-10-31T02:18:58.831Z,83.40
2022-10-31T02:22:09.591Z,83.40
2022-10-31T02:25:45.121Z,84.10
2022-10-31T02:29:07.920Z,83.40
2022-10-31T02:32:19.328Z,83.40
2022-10-31T02:35:37.689Z,83.40
2022-10-31T02:38:50.900Z,83.40
2022-10-31T02:42:10.197Z,83.50
2022-10-31T02:45:21.947Z,83.50
2022-10-31T02:48:30.352Z,83.50
2022-10-31T02:51:34.091Z,83.40
2022-10-31T02:54:37.766Z,83.50
2022-10-31T02:57:42.637Z,83.40
2022-10-31T03:00:56.119Z,83.50
2022-10-31T03:04:19.136Z,83.50
2022-10-31T03:07:31.354Z,83.50
2022-10-31T03:10:45.197Z,83.50
2022-10-31T03:13:52.265Z,83.50
2022-10-31T03:16:59.724Z,83.50
2022-10-31T03:20:08.675Z,83.60
2022-10-31T03:23:16.217Z,83.60
2022-10-31T03:26:24.476Z,83.70
2022-10-31T03:29:32.152Z,83.70
2022-10-31T03:32:39.007Z,83.80
2022-10-31T03:35:49.255Z,83.80
2022-10-31T03:38:54.017Z,83.80
2022-10-31T03:42:02.267Z,83.80
2022-10-31T03:45:10.642Z,83.80
2022-10-31T03:48:15.935Z,83.90
2022-10-31T03:51:25.613Z,83.90
2022-10-31T03:54:33.977Z,83.90
2022-10-31T03:57:43.624Z,83.90
2022-10-31T04:00:51.197Z,83.90
2022-10-31T04:03:55.505Z,83.80
2022-10-31T04:07:03.591Z,83.90
2022-10-31T04:10:11.634Z,83.90
2022-10-31T04:16:50.732Z,83.80
2022-10-31T04:20:01.705Z,83.70
2022-10-31T04:23:14.726Z,83.70
2022-10-31T04:26:18.579Z,83.80
2022-10-31T04:29:22.192Z,83.80
2022-10-31T04:32:25.991Z,83.80
2022-10-31T04:35:30.500Z,83.80
2022-10-31T04:38:36.057Z,83.80
2022-10-31T04:41:45.005Z,83.80
2022-10-31T04:44:51.380Z,83.80
2022-10-31T04:47:55.050Z,83.80
2022-10-31T04:51:04.220Z,83.80
2022-10-31T04:54:10.073Z,83.80
2022-10-31T04:57:43.088Z,83.80
2022-10-31T05:00:46.823Z,83.80
2022-10-31T05:03:51.424Z,83.80
2022-10-31T05:06:55.061Z,83.80
2022-10-31T05:10:00.748Z,83.80
2022-10-31T05:13:06.408Z,83.80
2022-10-31T05:16:30.849Z,83.80
2022-10-31T05:20:03.681Z,83.80
2022-10-31T05:23:36.376Z,83.80
2022-10-31T05:26:43.985Z,83.80
2022-10-31T05:29:47.684Z,83.80
2022-10-31T05:32:52.826Z,83.80
2022-10-31T05:36:22.073Z,83.80
2022-10-31T05:39:29.956Z,83.90
2022-10-31T05:42:40.745Z,83.80
2022-10-31T05:45:44.400Z,83.90
2022-10-31T05:49:05.143Z,83.90
2022-10-31T05:52:27.277Z,83.80
2022-10-31T05:55:38.365Z,83.90
2022-10-31T05:58:57.348Z,83.90
2022-10-31T06:02:03.348Z,83.90
2022-10-31T06:05:25.507Z,83.90
2022-10-31T06:08:30.124Z,83.90
2022-10-31T06:11:37.312Z,84.00
2022-10-31T06:14:42.876Z,84.00
2022-10-31T06:17:46.647Z,84.10
2022-10-31T06:20:59.382Z,84.00
2022-10-31T06:24:03.057Z,84.00
2022-10-31T06:27:29.533Z,84.00
2022-10-31T06:30:36.702Z,84.00
2022-10-31T06:33:42.912Z,84.10
2022-10-31T06:36:48.481Z,84.00
2022-10-31T06:39:52.625Z,84.00
2022-10-31T06:43:00.254Z,84.10
2022-10-31T06:46:07.396Z,84.10
2022-10-31T06:49:17.462Z,84.10
2022-10-31T06:52:30.859Z,84.10
2022-10-31T06:55:34.506Z,84.10
2022-10-31T06:58:38.216Z,84.10
2022-10-31T07:01:46.243Z,84.10
2022-10-31T07:04:49.958Z,84.00
2022-10-31T07:07:56.126Z,84.10
2022-10-31T07:11:00.010Z,84.20
2022-10-31T07:14:05.987Z,84.20
2022-10-31T07:17:11.708Z,84.20
2022-10-31T07:20:19.173Z,84.30
2022-10-31T07:23:22.819Z,84.30
2022-10-31T07:26:47.769Z,84.30
2022-10-31T07:29:52.089Z,84.30
2022-10-31T07:32:57.792Z,84.30
2022-10-31T07:36:10.258Z,84.40
2022-10-31T07:39:18.216Z,84.40
2022-10-31T07:42:21.834Z,84.40
2022-10-31T07:45:27.440Z,84.50
2022-10-31T07:48:51.588Z,84.50
2022-10-31T07:52:13.611Z,84.50
2022-10-31T07:55:49.660Z,84.60
2022-10-31T07:58:53.083Z,84.50
2022-10-31T08:01:56.700Z,84.60
2022-10-31T08:05:11.438Z,84.50
2022-10-31T08:08:36.055Z,84.70
2022-10-31T08:11:42.226Z,84.70
2022-10-31T08:14:46.109Z,84.90
2022-10-31T08:17:52.333Z,85.00
2022-10-31T08:20:58.218Z,85.10
2022-10-31T08:24:01.962Z,85.20
2022-10-31T08:27:06.424Z,85.30
2022-10-31T08:30:11.026Z,85.40
2022-10-31T08:33:19.932Z,85.40
2022-10-31T08:36:45.310Z,85.50
2022-10-31T08:39:52.826Z,85.50
2022-10-31T08:42:59.527Z,85.60
2022-10-31T08:46:03.603Z,85.70
2022-10-31T08:49:07.205Z,85.80
2022-10-31T08:52:15.112Z,85.80
2022-10-31T08:55:20.813Z,85.60
2022-10-31T08:58:25.226Z,85.80
2022-10-31T09:01:33.367Z,86.40
2022-10-31T09:04:36.912Z,85.90
2022-10-31T09:07:42.654Z,85.90
2022-10-31T09:10:46.891Z,85.80
2022-10-31T09:13:55.141Z,86.20
2022-10-31T09:17:29.453Z,86.10
2022-10-31T09:20:52.831Z,86.20
2022-10-31T09:23:58.477Z,86.30
2022-10-31T09:27:02.397Z,86.50
2022-10-31T09:30:07.448Z,86.60
2022-10-31T09:33:13.455Z,86.70
2022-10-31T09:36:20.618Z,86.70
2022-10-31T09:39:26.229Z,86.80
2022-10-31T09:42:45.673Z,86.90
2022-10-31T09:46:04.338Z,87.00
2022-10-31T09:49:33.766Z,86.90
2022-10-31T09:52:41.805Z,87.00
2022-10-31T09:55:50.417Z,86.80
2022-10-31T09:58:56.307Z,86.80
2022-10-31T10:02:02.888Z,86.70
2022-10-31T10:05:12.508Z,86.70
2022-10-31T10:08:21.923Z,86.80
2022-10-31T10:12:11.746Z,86.80
2022-10-31T10:15:36.733Z,86.80
2022-10-31T10:18:50.414Z,86.90
2022-10-31T10:22:02.591Z,86.80
2022-10-31T10:25:17.561Z,86.80
2022-10-31T10:28:29.881Z,86.90
2022-10-31T10:31:42.825Z,86.90
2022-10-31T10:34:51.688Z,86.80
2022-10-31T10:38:00.308Z,86.60
2022-10-31T10:41:07.343Z,86.40
2022-10-31T10:44:16.020Z,86.20
2022-10-31T10:47:33.501Z,85.90
2022-10-31T10:50:41.609Z,85.80
2022-10-31T10:54:07.995Z,85.60
2022-10-31T10:57:29.523Z,85.20
2022-10-31T11:00:38.348Z,85.00
2022-10-31T11:03:42.595Z,84.80
2022-10-31T11:06:47.458Z,84.60
2022-10-31T11:09:51.453Z,84.30
2022-10-31T11:13:05.856Z,84.10
2022-10-31T11:16:13.827Z,84.50
2022-10-31T11:19:21.318Z,83.80
2022-10-31T11:22:25.212Z,83.70
2022-10-31T11:25:29.492Z,83.70
2022-10-31T11:28:35.191Z,83.50
2022-10-31T11:31:41.555Z,83.40
2022-10-31T11:34:47.427Z,83.70
2022-10-31T11:37:53.777Z,83.30
2022-10-31T11:41:00.753Z,83.20
2022-10-31T11:44:07.620Z,83.10
2022-10-31T11:47:17.607Z,83.10
2022-10-31T11:50:23.529Z,83.00
2022-10-31T11:53:30.657Z,82.90
2022-10-31T11:56:44.703Z,82.80
2022-10-31T11:59:53.911Z,82.80
2022-10-31T12:03:16.248Z,82.80
2022-10-31T12:06:24.355Z,82.50
2022-10-31T12:09:31.576Z,82.60
2022-10-31T12:13:00.644Z,82.50
2022-10-31T12:16:13.372Z,82.20
2022-10-31T12:19:29.907Z,82.20
2022-10-31T12:22:44.002Z,82.10
2022-10-31T12:25:55.223Z,82.10
2022-10-31T12:29:12.720Z,82.00
2022-10-31T12:32:29.682Z,81.90
2022-10-31T12:35:48.428Z,81.90
2022-10-31T12:39:09.121Z,81.80
2022-10-31T12:42:22.005Z,81.70
2022-10-31T12:45:38.915Z,81.70
2022-10-31T12:49:11.728Z,81.70
2022-10-31T12:52:31.635Z,81.50
2022-10-31T12:55:43.902Z,81.50
2022-10-31T12:58:52.316Z,81.50
2022-10-31T13:02:01.867Z,81.80
2022-10-31T13:05:14.071Z,81.40
2022-10-31T13:08:24.528Z,81.40
2022-10-31T13:11:32.613Z,81.30
2022-10-31T13:14:42.242Z,81.30
2022-10-31T13:17:48.904Z,81.30
2022-10-31T13:20:55.674Z,81.30
2022-10-31T13:24:05.315Z,81.10
2022-10-31T13:27:16.487Z,81.10
2022-10-31T13:30:22.595Z,81.10
2022-10-31T13:33:30.999Z,81.10
2022-10-31T13:36:39.451Z,81.00
2022-10-31T13:39:55.448Z,81.00
2022-10-31T13:43:05.070Z,80.90
2022-10-31T13:46:25.251Z,81.00
2022-10-31T13:49:41.185Z,80.90
2022-10-31T13:52:45.676Z,81.00
2022-10-31T13:55:52.956Z,81.10
2022-10-31T13:59:20.127Z,81.00
2022-10-31T14:02:29.219Z,81.00
2022-10-31T14:05:34.805Z,81.00
2022-10-31T14:08:41.984Z,81.10
2022-10-31T14:11:50.163Z,81.00
2022-10-31T14:14:57.704Z,81.00
2022-10-31T14:18:05.828Z,81.00
2022-10-31T14:21:18.699Z,81.10
2022-10-31T14:24:39.243Z,81.00
2022-10-31T14:27:49.576Z,81.00
2022-10-31T14:30:59.012Z,81.00
2022-10-31T14:34:04.352Z,81.00
2022-10-31T14:37:36.249Z,81.00
2022-10-31T14:40:51.439Z,81.10
2022-10-31T14:44:22.689Z,81.10
2022-10-31T14:47:37.254Z,81.10
2022-10-31T14:50:50.339Z,81.10
2022-10-31T14:53:56.115Z,81.10
2022-10-31T14:57:05.176Z,81.10
2022-10-31T15:00:19.637Z,81.20
2022-10-31T15:03:28.924Z,81.20
2022-10-31T15:06:40.300Z,81.30
2022-10-31T15:09:45.858Z,81.30
2022-10-31T15:12:49.821Z,81.30
2022-10-31T15:15:56.944Z,81.30
2022-10-31T15:19:02.817Z,81.40
2022-10-31T15:22:06.726Z,81.30
2022-10-31T15:25:16.907Z,81.90
2022-10-31T15:28:26.270Z,81.30
2022-10-31T15:31:32.301Z,81.40
2022-10-31T15:34:40.493Z,81.40
2022-10-31T15:37:44.709Z,81.40
2022-10-31T15:40:55.186Z,81.40
2022-10-31T15:44:03.960Z,81.40
2022-10-31T15:47:18.205Z,81.50
2022-10-31T15:50:22.888Z,81.50
2022-10-31T15:53:29.166Z,81.50
2022-10-31T15:56:34.680Z,81.50
2022-10-31T15:59:38.460Z,81.60
2022-10-31T16:02:44.110Z,81.60
2022-10-31T16:05:49.463Z,81.60
2022-10-31T16:08:53.649Z,81.60
2022-10-31T16:11:59.768Z,81.70
2022-10-31T16:15:03.964Z,81.60
2022-10-31T16:18:14.274Z,81.70
2022-10-31T16:21:24.858Z,81.70
2022-10-31T16:24:33.038Z,81.70
2022-10-31T16:27:39.035Z,81.80
2022-10-31T16:30:48.544Z,81.80
2022-10-31T16:34:05.133Z,81.90
2022-10-31T16:37:08.781Z,81.90
2022-10-31T16:40:13.471Z,82.00
2022-10-31T16:43:19.321Z,81.90
2022-10-31T16:46:25.419Z,82.00
2022-10-31T16:49:30.952Z,82.10
2022-10-31T16:52:38.525Z,82.20
2022-10-31T16:55:57.135Z,82.20
2022-10-31T16:59:01.379Z,82.20
2022-10-31T17:02:06.346Z,82.20
2022-10-31T17:05:15.493Z,82.30
2022-10-31T17:08:19.559Z,82.40
2022-10-31T17:11:27.270Z,82.40
2022-10-31T17:14:31.236Z,82.50
2022-10-31T17:17:34.607Z,82.40
2022-10-31T17:20:40.862Z,82.40
2022-10-31T17:23:44.527Z,82.40
2022-10-31T17:26:48.203Z,82.40
2022-10-31T17:29:51.819Z,82.40
2022-10-31T17:32:56.169Z,82.40
2022-10-31T17:36:04.364Z,82.50
2022-10-31T17:39:09.048Z,82.50
2022-10-31T17:42:12.703Z,82.50
2022-10-31T17:45:16.396Z,82.60
2022-10-31T17:48:20.024Z,82.60
2022-10-31T17:51:25.610Z,82.70
2022-10-31T17:54:29.260Z,82.60
2022-10-31T17:57:35.411Z,82.60
2022-10-31T18:00:40.430Z,82.60
2022-10-31T18:03:44.207Z,82.60
2022-10-31T18:06:50.612Z,82.60
2022-10-31T18:09:54.205Z,82.60
2022-10-31T18:12:57.942Z,82.70
2022-10-31T18:16:01.768Z,82.70
2022-10-31T18:19:05.852Z,82.70
2022-10-31T18:22:11.258Z,82.70
2022-10-31T18:25:14.901Z,82.70
2022-10-31T18:28:18.516Z,82.70
2022-10-31T18:31:22.351Z,82.70
2022-10-31T18:34:26.194Z,82.70
2022-10-31T18:37:31.786Z,82.70
2022-10-31T18:40:36.711Z,82.80
2022-10-31T18:43:40.879Z,82.90
2022-10-31T18:46:44.525Z,82.80
2022-10-31T18:49:48.180Z,82.90
2022-10-31T18:52:53.965Z,82.90
2022-10-31T18:55:58.032Z,83.00
2022-10-31T18:59:02.603Z,82.90
2022-10-31T19:02:06.140Z,82.90
2022-10-31T19:05:09.955Z,82.80
2022-10-31T19:08:15.537Z,82.70
2022-10-31T19:11:19.259Z,82.90
2022-10-31T19:14:22.889Z,82.90
2022-10-31T19:17:26.560Z,82.90
2022-10-31T19:20:30.217Z,82.90
2022-10-31T19:23:36.436Z,83.00
2022-10-31T19:26:40.184Z,83.00
2022-10-31T19:29:43.824Z,83.00
2022-10-31T19:32:47.465Z,83.00
2022-10-31T19:35:51.113Z,83.00
2022-10-31T19:38:59.671Z,83.00
2022-10-31T19:42:03.366Z,83.00
2022-10-31T19:45:08.166Z,83.00
2022-10-31T19:48:11.821Z,83.00
2022-10-31T19:51:17.200Z,83.00
2022-10-31T19:54:22.773Z,83.00
2022-10-31T19:58:00.868Z,82.90
2022-10-31T20:00:50.161Z,82.90
2022-10-31T20:03:54.165Z,82.80
2022-10-31T20:06:57.822Z,82.80
2022-10-31T20:10:03.372Z,82.80
2022-10-31T20:13:07.210Z,82.70
2022-10-31T20:16:13.500Z,82.70
2022-10-31T20:19:17.178Z,82.80
2022-10-31T20:22:21.240Z,82.60
2022-10-31T20:25:26.796Z,82.60
2022-10-31T20:28:31.879Z,82.60
2022-10-31T20:31:37.851Z,82.60
2022-10-31T20:34:41.540Z,82.60
2022-10-31T20:37:45.280Z,82.60
2022-10-31T20:40:50.906Z,82.60
2022-10-31T20:43:54.537Z,82.60
2022-10-31T20:46:58.736Z,82.60
2022-10-31T20:50:03.943Z,82.60
2022-10-31T20:53:07.639Z,82.50
2022-10-31T20:56:15.855Z,82.60
2022-10-31T20:59:19.491Z,82.50
2022-10-31T21:02:23.276Z,82.50
2022-10-31T21:05:26.997Z,82.50
2022-10-31T21:08:32.118Z,82.50
2022-10-31T21:11:37.836Z,82.40
2022-10-31T21:14:41.533Z,82.40
2022-10-31T21:17:45.134Z,82.50
2022-10-31T21:20:48.779Z,82.40
2022-10-31T21:23:55.591Z,82.40
2022-10-31T21:27:04.557Z,82.40
2022-10-31T21:30:09.899Z,82.40
2022-10-31T21:33:13.986Z,82.40
2022-10-31T21:36:18.338Z,82.50
2022-10-31T21:39:22.008Z,82.50
2022-10-31T21:42:27.587Z,82.50
2022-10-31T21:45:31.226Z,82.40
2022-10-31T21:48:38.360Z,82.40
2022-10-31T21:51:43.480Z,82.40
2022-10-31T21:54:47.112Z,82.40
2022-10-31T21:57:52.676Z,82.50
2022-10-31T22:00:56.345Z,82.40
2022-10-31T22:04:00.991Z,82.40
2022-10-31T22:07:05.094Z,82.40
2022-10-31T22:10:09.700Z,82.40
2022-10-31T22:13:15.269Z,82.40
2022-10-31T22:16:20.859Z,82.40
2022-10-31T22:19:24.474Z,82.50
2022-10-31T22:22:28.147Z,82.50
2022-10-31T22:25:31.743Z,82.40
2022-10-31T22:28:37.498Z,82.40
2022-10-31T22:31:42.974Z,82.40
2022-10-31T22:34:46.617Z,82.40
2022-10-31T22:37:50.231Z,82.40
2022-10-31T22:40:57.873Z,82.40
2022-10-31T22:44:04.811Z,82.40
2022-10-31T22:47:08.482Z,82.30
2022-10-31T22:50:12.140Z,82.30
2022-10-31T22:53:15.795Z,82.40
2022-10-31T22:56:21.612Z,82.40
2022-10-31T22:59:27.179Z,82.30
2022-10-31T23:02:30.873Z,82.30
2022-10-31T23:05:34.530Z,82.30
2022-10-31T23:08:39.323Z,82.30
2022-10-31T23:11:43.628Z,82.30
2022-10-31T23:14:47.331Z,82.30
2022-10-31T23:17:51.011Z,82.30
2022-10-31T23:20:55.528Z,82.20
2022-10-31T23:23:59.468Z,82.20
2022-10-31T23:27:07.825Z,82.20
2022-10-31T23:30:13.701Z,82.20
2022-10-31T23:33:17.300Z,82.20
2022-10-31T23:36:20.878Z,82.20
2022-10-31T23:39:25.258Z,82.10
2022-10-31T23:42:29.943Z,82.10
2022-10-31T23:45:35.611Z,82.10
2022-10-31T23:48:39.325Z,82.00
2022-10-31T23:51:42.936Z,82.00
2022-10-31T23:54:46.677Z,82.00
2022-10-31T23:57:50.319Z,82.00
